logo
Search for airport 
image banner adimage banner adimage banner ad
image banner ad

FA0234 - Metro East London Helistop

Located in , South Africa

ICAO - , IATA -

Data provided by Airmate  

General information

Coordinates: S32°58'31" E27°53'56"
Elevation is 434 feet MSL.
 
View others Airports in Northern Cape

Operational data

Special qualification required
Current time UTC:
Current local time:
Weather at : FAEL - King Phalo ( 10 km )
METAR: FAEL 230400Z 28003KT 250V340 9999 FEW027 15/15 Q1018
TAF: TAF FAEL 230300Z 2304/2315 VRB02KT 9999 FEW010 BKN020 TX24/2311Z TN16/2304Z PROB40 TEMPO 2304/2306 4000 BR BKN004 BECMG 2311/2313 08010KT
View NOTAMs / SUP AIP / TFR affecting this airport [VIEW]
Communications frequencies: [VIEW]

Runways:

Airport contact information

Address: South Africa

Satellite view of FA0234